createdAt,value
2022-07-30T00:00:25.254Z,18.07
2022-07-30T00:02:29.437Z,18.04
2022-07-30T00:04:33.732Z,18.03
2022-07-30T00:06:40.114Z,18.02
2022-07-30T00:08:44.055Z,18.00
2022-07-30T00:10:47.947Z,17.99
2022-07-30T00:12:53.806Z,17.97
2022-07-30T00:14:57.477Z,17.95
2022-07-30T00:17:04.132Z,17.94
2022-07-30T00:19:08.386Z,17.93
2022-07-30T00:21:11.929Z,17.93
2022-07-30T00:23:24.345Z,17.92
2022-07-30T00:25:28.081Z,17.91
2022-07-30T00:27:35.038Z,17.91
2022-07-30T00:29:38.947Z,17.89
2022-07-30T00:31:48.889Z,17.91
2022-07-30T00:33:54.453Z,17.90
2022-07-30T00:35:58.167Z,17.90
2022-07-30T00:38:02.438Z,17.91
2022-07-30T00:40:08.658Z,17.90
2022-07-30T00:42:13.313Z,17.90
2022-07-30T00:44:17.443Z,17.89
2022-07-30T00:46:21.911Z,17.87
2022-07-30T00:48:26.066Z,17.87
2022-07-30T00:50:31.474Z,17.86
2022-07-30T00:52:36.083Z,17.85
2022-07-30T00:54:41.279Z,17.84
2022-07-30T00:56:45.332Z,17.85
2022-07-30T00:58:49.393Z,17.83
2022-07-30T01:00:53.327Z,17.84
2022-07-30T01:02:57.231Z,17.83
2022-07-30T01:05:01.174Z,17.83
2022-07-30T01:07:06.716Z,17.82
2022-07-30T01:09:10.992Z,17.82
2022-07-30T01:11:15.796Z,17.80
2022-07-30T01:13:19.796Z,17.81
2022-07-30T01:15:23.894Z,17.79
2022-07-30T01:17:27.661Z,17.79
2022-07-30T01:19:52.460Z,17.79
2022-07-30T01:22:08.710Z,17.78
2022-07-30T01:24:28.102Z,17.77
2022-07-30T01:26:34.875Z,17.77
2022-07-30T01:28:42.753Z,17.76
2022-07-30T01:30:50.136Z,17.76
2022-07-30T01:32:57.745Z,17.77
2022-07-30T01:35:04.510Z,17.77
2022-07-30T01:37:11.470Z,17.75
2022-07-30T01:39:16.839Z,17.73
2022-07-30T01:41:21.701Z,17.72
2022-07-30T01:43:28.623Z,17.71
2022-07-30T01:45:41.502Z,17.73
2022-07-30T01:47:48.856Z,17.73
2022-07-30T01:49:55.192Z,17.73
2022-07-30T01:52:00.130Z,17.72
2022-07-30T01:54:04.181Z,17.71
2022-07-30T01:56:11.632Z,17.70
2022-07-30T01:58:19.759Z,17.69
2022-07-30T02:00:31.105Z,17.68
2022-07-30T02:02:36.969Z,17.64
2022-07-30T02:04:41.496Z,17.63
2022-07-30T02:06:53.767Z,17.59
2022-07-30T02:08:59.987Z,17.56
2022-07-30T02:11:09.777Z,17.54
2022-07-30T02:13:15.643Z,17.53
2022-07-30T02:15:26.462Z,17.51
2022-07-30T02:17:42.959Z,17.49
2022-07-30T02:19:52.659Z,17.49
2022-07-30T02:22:02.384Z,17.48
2022-07-30T02:24:13.918Z,17.48
2022-07-30T02:26:22.458Z,17.47
2022-07-30T02:28:27.786Z,17.45
2022-07-30T02:30:32.974Z,17.43
2022-07-30T02:32:42.196Z,17.43
2022-07-30T02:34:47.871Z,17.41
2022-07-30T02:36:52.219Z,17.40
2022-07-30T02:38:57.377Z,17.41
2022-07-30T02:41:03.116Z,17.40
2022-07-30T02:43:06.997Z,17.39
2022-07-30T02:45:13.712Z,17.40
2022-07-30T02:47:18.475Z,17.37
2022-07-30T02:49:31.650Z,17.37
2022-07-30T02:51:36.795Z,17.35
2022-07-30T02:53:41.618Z,17.35
2022-07-30T02:55:47.147Z,17.35
2022-07-30T02:57:53.740Z,17.35
2022-07-30T02:59:58.350Z,17.33
2022-07-30T03:02:05.452Z,17.32
2022-07-30T03:04:10.400Z,17.34
2022-07-30T03:06:16.675Z,17.34
2022-07-30T03:08:20.796Z,17.34
2022-07-30T03:10:27.412Z,17.33
2022-07-30T03:12:33.006Z,17.34
2022-07-30T03:14:36.476Z,17.33
2022-07-30T03:16:42.270Z,17.34
2022-07-30T03:18:48.822Z,17.33
2022-07-30T03:20:57.678Z,17.32
2022-07-30T03:23:04.314Z,17.31
2022-07-30T03:25:10.009Z,17.29
2022-07-30T03:27:14.983Z,17.29
2022-07-30T03:29:21.842Z,17.29
2022-07-30T03:31:25.455Z,17.29
2022-07-30T03:33:38.708Z,17.29
2022-07-30T03:35:44.060Z,17.29
2022-07-30T03:37:48.525Z,17.28
2022-07-30T03:39:54.038Z,17.27
2022-07-30T03:41:57.878Z,17.27
2022-07-30T03:44:02.263Z,17.25
2022-07-30T03:46:06.718Z,17.26
2022-07-30T03:48:14.385Z,17.27
2022-07-30T03:50:22.354Z,17.27
2022-07-30T03:52:27.058Z,17.27
2022-07-30T03:54:33.765Z,17.27
2022-07-30T03:56:57.393Z,17.27
2022-07-30T03:59:09.307Z,17.27
2022-07-30T04:01:16.030Z,17.27
2022-07-30T04:03:26.687Z,17.27
2022-07-30T04:05:41.113Z,17.24
2022-07-30T04:07:46.060Z,17.24
2022-07-30T04:09:51.903Z,17.22
2022-07-30T04:12:09.812Z,17.21
2022-07-30T04:14:13.276Z,17.20
2022-07-30T04:16:40.109Z,17.20
2022-07-30T04:18:51.763Z,17.19
2022-07-30T04:20:56.523Z,17.18
2022-07-30T04:23:01.223Z,17.17
2022-07-30T04:25:07.060Z,17.16
2022-07-30T04:27:12.595Z,17.16
2022-07-30T04:29:22.571Z,17.15
2022-07-30T04:31:29.665Z,17.16
2022-07-30T04:33:39.175Z,17.14
2022-07-30T04:35:56.124Z,17.13
2022-07-30T04:38:10.646Z,17.14
2022-07-30T04:40:14.077Z,17.14
2022-07-30T04:42:18.889Z,17.13
2022-07-30T04:44:30.597Z,17.15
2022-07-30T04:47:03.886Z,17.16
2022-07-30T04:49:14.047Z,17.16
2022-07-30T04:51:24.078Z,17.15
2022-07-30T04:53:29.976Z,17.16
2022-07-30T04:55:41.901Z,17.14
2022-07-30T04:57:49.530Z,17.15
2022-07-30T04:59:53.452Z,17.12
2022-07-30T05:02:00.011Z,17.12
2022-07-30T05:04:04.398Z,17.10
2022-07-30T05:06:09.000Z,17.10
2022-07-30T05:08:15.643Z,17.11
2022-07-30T05:10:20.180Z,17.11
2022-07-30T05:12:32.954Z,17.12
2022-07-30T05:14:38.134Z,17.12
2022-07-30T05:16:41.483Z,17.12
2022-07-30T05:18:45.524Z,17.12
2022-07-30T05:20:49.244Z,17.13
2022-07-30T05:22:56.600Z,17.13
2022-07-30T05:25:01.206Z,17.13
2022-07-30T05:27:05.525Z,17.12
2022-07-30T05:29:09.329Z,17.11
2022-07-30T05:31:28.301Z,17.10
2022-07-30T05:33:41.058Z,17.11
2022-07-30T05:35:48.161Z,17.09
2022-07-30T05:37:51.637Z,17.08
2022-07-30T05:39:58.812Z,17.10
2022-07-30T05:42:12.967Z,17.09
2022-07-30T05:44:23.909Z,17.11
2022-07-30T05:46:29.809Z,17.11
2022-07-30T05:48:35.700Z,17.12
2022-07-30T05:50:39.243Z,17.13
2022-07-30T05:52:42.695Z,17.14
2022-07-30T05:55:06.155Z,17.13
2022-07-30T05:57:37.029Z,17.16
2022-07-30T05:59:41.568Z,17.16
2022-07-30T06:02:06.967Z,17.18
2022-07-30T06:04:35.662Z,17.19
2022-07-30T06:06:41.600Z,17.20
2022-07-30T06:08:45.392Z,17.21
2022-07-30T06:10:48.895Z,17.23
2022-07-30T06:12:52.260Z,17.25
2022-07-30T06:14:56.428Z,17.25
2022-07-30T06:17:06.577Z,17.25
2022-07-30T06:19:36.393Z,17.27
2022-07-30T06:22:05.831Z,17.27
2022-07-30T06:24:05.697Z,17.28
2022-07-30T06:26:19.210Z,17.29
2022-07-30T06:28:39.172Z,17.28
2022-07-30T06:30:57.369Z,17.31
2022-07-30T06:33:04.969Z,17.30
2022-07-30T06:35:09.380Z,17.29
2022-07-30T06:37:13.583Z,17.27
2022-07-30T06:39:57.033Z,17.27
2022-07-30T06:42:05.475Z,17.25
2022-07-30T06:44:34.865Z,17.25
2022-07-30T06:46:58.665Z,17.22
2022-07-30T06:49:05.505Z,17.20
2022-07-30T06:51:09.753Z,17.20
2022-07-30T06:53:15.104Z,17.19
2022-07-30T06:55:41.558Z,17.20
2022-07-30T06:57:45.108Z,17.20
2022-07-30T07:00:10.184Z,17.19
2022-07-30T07:02:17.796Z,17.17
2022-07-30T07:04:46.196Z,17.11
2022-07-30T07:06:50.029Z,17.05
2022-07-30T07:09:02.256Z,17.02
2022-07-30T07:11:13.188Z,16.99
2022-07-30T07:13:23.022Z,16.97
2022-07-30T07:15:36.344Z,16.97
2022-07-30T07:17:42.056Z,16.97
2022-07-30T07:20:02.494Z,16.98
2022-07-30T07:22:12.384Z,17.00
2022-07-30T07:24:17.225Z,17.01
2022-07-30T07:26:32.866Z,17.02
2022-07-30T07:28:36.233Z,17.02
2022-07-30T07:30:39.952Z,17.03
2022-07-30T07:32:44.730Z,17.04
2022-07-30T07:34:49.528Z,17.04
2022-07-30T07:36:54.443Z,17.05
2022-07-30T07:38:59.029Z,17.05
2022-07-30T07:41:02.930Z,17.05
2022-07-30T07:43:07.210Z,17.05
2022-07-30T07:45:11.911Z,17.05
2022-07-30T07:47:23.119Z,17.06
2022-07-30T07:49:40.767Z,17.07
2022-07-30T07:51:48.094Z,17.09
2022-07-30T07:54:19.955Z,17.09
2022-07-30T07:56:20.412Z,17.07
2022-07-30T07:58:26.087Z,17.06
2022-07-30T08:00:33.353Z,17.06
2022-07-30T08:02:36.832Z,17.05
2022-07-30T08:04:42.693Z,17.05
2022-07-30T08:06:45.984Z,17.08
2022-07-30T08:09:09.787Z,17.11
2022-07-30T08:11:51.590Z,17.15
2022-07-30T08:14:24.193Z,17.15
2022-07-30T08:16:56.965Z,17.17
2022-07-30T08:19:20.619Z,17.20
2022-07-30T08:21:35.500Z,17.20
2022-07-30T08:23:42.522Z,17.24
2022-07-30T08:25:47.741Z,17.26
2022-07-30T08:27:50.965Z,17.28
2022-07-30T08:29:56.055Z,17.27
2022-07-30T08:32:02.299Z,17.24
2022-07-30T08:34:05.957Z,17.24
2022-07-30T08:36:10.243Z,17.25
2022-07-30T08:38:15.459Z,17.25
2022-07-30T08:40:20.470Z,17.25
2022-07-30T08:42:36.701Z,17.25
2022-07-30T08:44:42.681Z,17.23
2022-07-30T08:46:48.696Z,17.22
2022-07-30T08:49:11.013Z,17.25
2022-07-30T08:51:18.461Z,17.28
2022-07-30T08:53:22.469Z,17.31
2022-07-30T08:55:26.751Z,17.32
2022-07-30T08:57:31.668Z,17.33
2022-07-30T08:59:52.841Z,17.33
2022-07-30T09:02:05.617Z,17.34
2022-07-30T09:04:19.058Z,17.34
2022-07-30T09:06:23.746Z,17.37
2022-07-30T09:08:27.053Z,17.37
2022-07-30T09:10:30.370Z,17.38
2022-07-30T09:12:35.563Z,17.41
2022-07-30T09:14:41.154Z,17.45
2022-07-30T09:16:46.385Z,17.49
2022-07-30T09:18:50.672Z,17.54
2022-07-30T09:20:54.228Z,17.59
2022-07-30T09:22:59.463Z,17.63
2022-07-30T09:25:36.371Z,17.69
2022-07-30T09:27:58.180Z,17.73
2022-07-30T09:30:21.510Z,17.77
2022-07-30T09:32:50.252Z,17.79
2022-07-30T09:35:16.186Z,17.85
2022-07-30T09:38:05.886Z,17.93
2022-07-30T09:40:32.352Z,18.01
2022-07-30T09:43:09.493Z,18.03
2022-07-30T09:45:16.185Z,18.06
2022-07-30T09:47:33.454Z,18.10
2022-07-30T09:49:37.468Z,18.13
2022-07-30T09:51:56.101Z,18.16
2022-07-30T09:54:02.030Z,18.19
2022-07-30T09:56:27.623Z,18.26
2022-07-30T09:58:45.471Z,18.32
2022-07-30T10:00:50.121Z,18.37
2022-07-30T10:03:21.780Z,18.42
2022-07-30T10:05:57.897Z,18.43
2022-07-30T10:08:09.477Z,18.41
2022-07-30T10:10:25.638Z,18.40
2022-07-30T10:12:30.265Z,18.40
2022-07-30T10:14:42.289Z,18.47
2022-07-30T10:16:46.380Z,18.52
2022-07-30T10:18:51.959Z,18.61
2022-07-30T10:21:16.924Z,18.66
2022-07-30T10:23:49.254Z,18.71
2022-07-30T10:26:13.639Z,18.80
2022-07-30T10:28:41.722Z,18.89
2022-07-30T10:30:45.674Z,18.99
2022-07-30T10:32:52.393Z,19.05
2022-07-30T10:34:57.860Z,19.07
2022-07-30T10:37:06.504Z,19.07
2022-07-30T10:39:14.533Z,19.06
2022-07-30T10:41:43.194Z,19.07
2022-07-30T10:44:22.649Z,19.10
2022-07-30T10:46:44.293Z,19.20
2022-07-30T10:48:48.303Z,19.26
2022-07-30T10:50:55.894Z,19.35
2022-07-30T10:53:01.315Z,19.42
2022-07-30T10:55:13.653Z,19.42
2022-07-30T10:57:32.279Z,19.44
2022-07-30T11:00:10.003Z,19.50
2022-07-30T11:02:17.686Z,19.68
2022-07-30T11:04:25.697Z,19.92
2022-07-30T11:06:31.853Z,20.22
2022-07-30T11:08:42.610Z,20.55
2022-07-30T11:10:46.829Z,20.78
2022-07-30T11:12:55.944Z,20.89
2022-07-30T11:15:07.255Z,20.92
2022-07-30T11:17:22.195Z,20.91
2022-07-30T11:19:55.161Z,20.84
2022-07-30T11:22:24.296Z,20.62
2022-07-30T11:24:45.514Z,20.40
2022-07-30T11:26:52.642Z,20.28
2022-07-30T11:28:55.920Z,20.21
2022-07-30T11:31:00.672Z,20.24
2022-07-30T11:33:32.130Z,20.32
2022-07-30T11:35:36.544Z,20.38
2022-07-30T11:38:19.321Z,20.41
2022-07-30T11:40:26.017Z,20.52
2022-07-30T11:42:31.956Z,20.68
2022-07-30T11:44:35.924Z,20.83
2022-07-30T11:46:49.913Z,20.95
2022-07-30T11:48:58.459Z,20.98
2022-07-30T11:51:04.067Z,20.99
2022-07-30T11:53:09.110Z,21.02
2022-07-30T11:55:24.221Z,20.98
2022-07-30T11:57:41.352Z,21.01
2022-07-30T11:59:55.296Z,21.07
2022-07-30T12:02:02.241Z,21.07
2022-07-30T12:04:09.084Z,21.06
2022-07-30T12:06:18.370Z,21.07
2022-07-30T12:08:35.296Z,21.10
2022-07-30T12:10:41.711Z,21.13
2022-07-30T12:12:46.124Z,21.12
2022-07-30T12:14:49.812Z,20.98
2022-07-30T12:16:55.378Z,20.82
2022-07-30T12:19:03.207Z,20.73
2022-07-30T12:21:09.491Z,20.65
2022-07-30T12:23:13.781Z,20.52
2022-07-30T12:25:17.561Z,20.47
2022-07-30T12:27:22.654Z,20.38
2022-07-30T12:29:26.323Z,20.33
2022-07-30T12:31:30.109Z,20.29
2022-07-30T12:33:35.949Z,20.32
2022-07-30T12:35:45.262Z,20.41
2022-07-30T12:38:05.508Z,20.58
2022-07-30T12:40:14.791Z,20.79
2022-07-30T12:42:24.931Z,20.94
2022-07-30T12:44:39.512Z,21.01
2022-07-30T12:46:43.463Z,20.99
2022-07-30T12:48:55.842Z,20.99
2022-07-30T12:51:07.060Z,20.95
2022-07-30T12:53:10.800Z,20.94
2022-07-30T12:55:14.897Z,20.92
2022-07-30T12:57:18.950Z,20.92
2022-07-30T12:59:24.806Z,20.89
2022-07-30T13:01:44.317Z,20.89
2022-07-30T13:03:48.437Z,20.89
2022-07-30T13:05:55.542Z,20.80
2022-07-30T13:08:01.366Z,20.75
2022-07-30T13:10:10.235Z,20.75
2022-07-30T13:12:15.413Z,20.81
2022-07-30T13:14:19.590Z,20.84
2022-07-30T13:16:32.963Z,20.91
2022-07-30T13:18:37.871Z,20.98
2022-07-30T13:20:42.673Z,21.02
2022-07-30T13:22:46.949Z,21.08
2022-07-30T13:24:50.444Z,21.07
2022-07-30T13:26:54.489Z,21.07
2022-07-30T13:29:01.681Z,21.12
2022-07-30T13:31:05.819Z,21.16
2022-07-30T13:33:11.248Z,21.20
2022-07-30T13:35:15.348Z,21.21
2022-07-30T13:37:19.565Z,21.23
2022-07-30T13:39:26.781Z,21.27
2022-07-30T13:41:30.991Z,21.37
2022-07-30T13:43:35.422Z,21.45
2022-07-30T13:45:39.247Z,21.53
2022-07-30T13:47:43.713Z,21.60
2022-07-30T13:49:51.151Z,21.65
2022-07-30T13:51:54.796Z,21.69
2022-07-30T13:53:58.424Z,21.68
2022-07-30T13:56:03.986Z,21.73
2022-07-30T13:58:08.175Z,21.75
2022-07-30T14:00:13.518Z,21.77
2022-07-30T14:02:17.049Z,21.83
2022-07-30T14:04:20.783Z,21.88
2022-07-30T14:06:26.225Z,21.92
2022-07-30T14:08:31.790Z,21.90
2022-07-30T14:10:37.575Z,21.85
2022-07-30T14:12:41.436Z,21.84
2022-07-30T14:14:45.042Z,21.80
2022-07-30T14:16:53.755Z,21.73
2022-07-30T14:18:58.295Z,21.63
2022-07-30T14:21:02.901Z,21.55
2022-07-30T14:23:09.396Z,21.45
2022-07-30T14:25:13.632Z,21.43
2022-07-30T14:27:20.168Z,21.41
2022-07-30T14:29:23.984Z,21.44
2022-07-30T14:31:27.779Z,21.46
2022-07-30T14:33:31.588Z,21.44
2022-07-30T14:35:36.210Z,21.40
2022-07-30T14:37:40.942Z,21.33
2022-07-30T14:39:46.319Z,21.25
2022-07-30T14:41:54.046Z,21.17
2022-07-30T14:43:59.859Z,21.11
2022-07-30T14:46:03.631Z,21.10
2022-07-30T14:48:07.867Z,21.10
2022-07-30T14:50:11.827Z,21.10
2022-07-30T14:52:15.759Z,21.10
2022-07-30T14:54:20.263Z,21.10
2022-07-30T14:56:25.701Z,21.10
2022-07-30T14:58:29.668Z,21.10
2022-07-30T15:00:34.922Z,21.08
2022-07-30T15:02:52.476Z,21.06
2022-07-30T15:04:56.241Z,21.00
2022-07-30T15:07:00.019Z,20.91
2022-07-30T15:09:06.510Z,20.79
2022-07-30T15:11:10.483Z,20.74
2022-07-30T15:13:15.980Z,20.71
2022-07-30T15:15:19.995Z,20.66
2022-07-30T15:17:26.529Z,20.62
2022-07-30T15:19:30.464Z,20.61
2022-07-30T15:21:34.323Z,20.61
2022-07-30T15:23:38.055Z,20.61
2022-07-30T15:25:42.051Z,20.60
2022-07-30T15:27:46.113Z,20.59
2022-07-30T15:29:51.354Z,20.60
2022-07-30T15:31:55.288Z,20.65
2022-07-30T15:33:58.934Z,20.64
2022-07-30T15:36:02.490Z,20.66
2022-07-30T15:38:06.321Z,20.67
2022-07-30T15:40:11.008Z,20.68
2022-07-30T15:42:14.982Z,20.69
2022-07-30T15:44:19.461Z,20.70
2022-07-30T15:46:25.560Z,20.69
2022-07-30T15:48:29.387Z,20.66
2022-07-30T15:50:33.654Z,20.63
2022-07-30T15:52:38.608Z,20.61
2022-07-30T15:54:43.066Z,20.58
2022-07-30T15:56:47.028Z,20.57
2022-07-30T15:58:51.757Z,20.54
2022-07-30T16:00:56.332Z,20.56
2022-07-30T16:03:01.644Z,20.55
2022-07-30T16:05:09.436Z,20.52
2022-07-30T16:07:16.792Z,20.49
2022-07-30T16:09:22.141Z,20.44
2022-07-30T16:11:27.556Z,20.42
2022-07-30T16:13:36.392Z,20.37
2022-07-30T16:15:40.387Z,20.36
2022-07-30T16:17:44.234Z,20.34
2022-07-30T16:19:50.066Z,20.35
2022-07-30T16:21:54.471Z,20.30
2022-07-30T16:23:58.530Z,20.25
2022-07-30T16:26:02.808Z,20.21
2022-07-30T16:28:06.661Z,20.17
2022-07-30T16:30:12.960Z,20.12
2022-07-30T16:32:16.617Z,20.05
2022-07-30T16:34:22.942Z,20.01
2022-07-30T16:36:31.834Z,19.95
2022-07-30T16:38:35.552Z,19.89
2022-07-30T16:40:39.540Z,19.86
2022-07-30T16:42:43.350Z,19.84
2022-07-30T16:44:47.262Z,19.83
2022-07-30T16:46:50.863Z,19.81
2022-07-30T16:48:54.713Z,19.78
2022-07-30T16:50:58.457Z,19.74
2022-07-30T16:53:07.690Z,19.70
2022-07-30T16:55:13.496Z,19.63
2022-07-30T16:57:17.892Z,19.58
2022-07-30T16:59:21.659Z,19.51
2022-07-30T17:01:25.464Z,19.45
2022-07-30T17:03:29.126Z,19.40
2022-07-30T17:05:33.264Z,19.33
2022-07-30T17:07:37.106Z,19.30
2022-07-30T17:09:42.285Z,19.28
2022-07-30T17:11:52.246Z,19.26
2022-07-30T17:13:56.834Z,19.26
2022-07-30T17:16:00.476Z,19.26
2022-07-30T17:18:04.400Z,19.23
2022-07-30T17:20:10.192Z,19.23
2022-07-30T17:22:14.106Z,19.19
2022-07-30T17:24:18.030Z,19.19
2022-07-30T17:26:23.191Z,19.17
2022-07-30T17:28:27.388Z,19.17
2022-07-30T17:30:31.381Z,19.14
2022-07-30T17:32:35.867Z,19.14
2022-07-30T17:34:39.859Z,19.16
2022-07-30T17:36:52.739Z,19.20
2022-07-30T17:38:57.695Z,19.24
2022-07-30T17:41:01.635Z,19.27
2022-07-30T17:43:07.901Z,19.32
2022-07-30T17:45:12.670Z,19.37
2022-07-30T17:47:16.582Z,19.39
2022-07-30T17:49:20.718Z,19.41
2022-07-30T17:51:24.899Z,19.43
2022-07-30T17:53:28.743Z,19.45
2022-07-30T17:55:35.317Z,19.48
2022-07-30T17:57:39.909Z,19.47
2022-07-30T17:59:45.727Z,19.48
2022-07-30T18:01:49.414Z,19.47
2022-07-30T18:03:53.133Z,19.46
2022-07-30T18:05:57.385Z,19.45
2022-07-30T18:08:01.036Z,19.46
2022-07-30T18:10:04.987Z,19.45
2022-07-30T18:12:09.818Z,19.43
2022-07-30T18:14:13.401Z,19.43
2022-07-30T18:16:18.995Z,19.42
2022-07-30T18:18:22.604Z,19.41
2022-07-30T18:20:26.244Z,19.41
2022-07-30T18:22:32.076Z,19.41
2022-07-30T18:24:40.211Z,19.43
2022-07-30T18:26:47.198Z,19.42
2022-07-30T18:28:51.900Z,19.42
2022-07-30T18:30:56.316Z,19.41
2022-07-30T18:33:01.476Z,19.40
2022-07-30T18:35:05.336Z,19.39
2022-07-30T18:37:14.456Z,19.40
2022-07-30T18:39:18.596Z,19.39
2022-07-30T18:41:22.584Z,19.37
2022-07-30T18:43:27.917Z,19.36
2022-07-30T18:45:36.707Z,19.37
2022-07-30T18:47:40.709Z,19.35
2022-07-30T18:49:46.433Z,19.34
2022-07-30T18:51:50.247Z,19.31
2022-07-30T18:53:54.040Z,19.26
2022-07-30T18:55:57.852Z,19.24
2022-07-30T18:58:01.547Z,19.22
2022-07-30T19:00:07.921Z,19.20
2022-07-30T19:02:12.467Z,19.18
2022-07-30T19:04:16.398Z,19.17
2022-07-30T19:06:22.969Z,19.14
2022-07-30T19:08:28.217Z,19.13
2022-07-30T19:10:32.249Z,19.11
2022-07-30T19:12:36.282Z,19.09
2022-07-30T19:14:40.008Z,19.08
2022-07-30T19:16:44.869Z,19.07
2022-07-30T19:18:48.827Z,19.08
2022-07-30T19:20:52.786Z,19.08
2022-07-30T19:23:04.329Z,19.07
2022-07-30T19:25:09.305Z,19.06
2022-07-30T19:27:14.398Z,19.06
2022-07-30T19:29:18.409Z,19.04
2022-07-30T19:31:22.260Z,19.01
2022-07-30T19:33:26.151Z,19.00
2022-07-30T19:35:29.681Z,18.97
2022-07-30T19:37:33.369Z,18.92
2022-07-30T19:39:38.392Z,18.90
2022-07-30T19:42:01.963Z,18.85
2022-07-30T19:44:06.652Z,18.81
2022-07-30T19:46:12.992Z,18.75
2022-07-30T19:48:29.194Z,18.70
2022-07-30T19:50:43.284Z,18.65
2022-07-30T19:52:51.214Z,18.58
2022-07-30T19:54:56.854Z,18.52
2022-07-30T19:57:02.257Z,18.45
2022-07-30T19:59:14.488Z,18.40
2022-07-30T20:01:18.728Z,18.36
2022-07-30T20:03:31.678Z,18.33
2022-07-30T20:05:57.246Z,18.30
2022-07-30T20:07:59.469Z,18.24
2022-07-30T20:10:05.408Z,18.22
2022-07-30T20:12:09.676Z,18.19
2022-07-30T20:14:16.311Z,18.18
2022-07-30T20:16:20.337Z,18.15
2022-07-30T20:18:29.271Z,18.13
2022-07-30T20:20:33.779Z,18.11
2022-07-30T20:22:37.389Z,18.08
2022-07-30T20:24:41.357Z,18.05
2022-07-30T20:26:47.127Z,18.04
2022-07-30T20:28:52.405Z,18.02
2022-07-30T20:31:00.503Z,17.99
2022-07-30T20:33:04.608Z,17.99
2022-07-30T20:35:09.280Z,17.98
2022-07-30T20:37:17.779Z,17.98
2022-07-30T20:39:26.701Z,17.96
2022-07-30T20:41:30.168Z,17.96
2022-07-30T20:43:46.144Z,17.95
2022-07-30T20:45:56.155Z,17.95
2022-07-30T20:48:00.488Z,17.95
2022-07-30T20:50:09.584Z,17.92
2022-07-30T20:52:13.980Z,17.91
2022-07-30T20:54:17.586Z,17.90
2022-07-30T20:56:21.748Z,17.90
2022-07-30T20:58:25.450Z,17.90
2022-07-30T21:00:31.783Z,17.89
2022-07-30T21:02:35.742Z,17.88
2022-07-30T21:04:41.697Z,17.88
2022-07-30T21:06:50.553Z,17.88
2022-07-30T21:08:55.547Z,17.88
2022-07-30T21:11:00.422Z,17.88
2022-07-30T21:13:07.609Z,17.88
2022-07-30T21:15:24.276Z,17.87
2022-07-30T21:17:29.736Z,17.87
2022-07-30T21:19:34.103Z,17.85
2022-07-30T21:21:42.029Z,17.85
2022-07-30T21:23:51.959Z,17.85
2022-07-30T21:26:00.507Z,17.85
2022-07-30T21:28:07.191Z,17.85
2022-07-30T21:30:11.461Z,17.85
2022-07-30T21:32:18.360Z,17.85
2022-07-30T21:34:25.913Z,17.86
2022-07-30T21:36:30.304Z,17.88
2022-07-30T21:38:35.215Z,17.91
2022-07-30T21:40:39.636Z,17.91
2022-07-30T21:42:48.392Z,17.93
2022-07-30T21:44:52.413Z,17.94
2022-07-30T21:46:56.494Z,17.96
2022-07-30T21:49:01.228Z,17.97
2022-07-30T21:51:07.341Z,17.99
2022-07-30T21:53:13.614Z,17.99
2022-07-30T21:55:17.424Z,17.99
2022-07-30T21:57:26.366Z,17.99
2022-07-30T21:59:33.624Z,18.00
2022-07-30T22:01:39.093Z,18.01
2022-07-30T22:04:03.789Z,18.01
2022-07-30T22:06:12.967Z,18.02
2022-07-30T22:08:18.454Z,18.03
2022-07-30T22:10:23.576Z,18.03
2022-07-30T22:12:29.195Z,18.03
2022-07-30T22:14:34.886Z,18.03
2022-07-30T22:16:44.610Z,18.03
2022-07-30T22:18:49.902Z,18.01
2022-07-30T22:20:54.955Z,17.99
2022-07-30T22:23:02.158Z,17.93
2022-07-30T22:25:09.610Z,17.87
2022-07-30T22:27:14.778Z,17.81
2022-07-30T22:29:18.782Z,17.75
2022-07-30T22:31:22.700Z,17.70
2022-07-30T22:33:26.728Z,17.66
2022-07-30T22:35:34.296Z,17.63
2022-07-30T22:37:38.196Z,17.59
2022-07-30T22:39:50.957Z,17.57
2022-07-30T22:41:55.809Z,17.56
2022-07-30T22:43:59.646Z,17.55
2022-07-30T22:46:04.108Z,17.55
2022-07-30T22:48:25.880Z,17.54
2022-07-30T22:50:31.507Z,17.54
2022-07-30T22:52:38.932Z,17.54
2022-07-30T22:54:44.151Z,17.54
2022-07-30T22:56:54.397Z,17.54
2022-07-30T22:58:58.229Z,17.53
2022-07-30T23:01:02.146Z,17.51
2022-07-30T23:03:07.736Z,17.51
2022-07-30T23:05:12.283Z,17.51
2022-07-30T23:07:16.561Z,17.53
2022-07-30T23:09:22.748Z,17.52
2022-07-30T23:11:37.101Z,17.50
2022-07-30T23:13:41.491Z,17.50
2022-07-30T23:15:45.255Z,17.50
2022-07-30T23:17:49.198Z,17.50
2022-07-30T23:19:52.898Z,17.51
2022-07-30T23:21:56.512Z,17.51
2022-07-30T23:24:00.602Z,17.54
2022-07-30T23:26:04.761Z,17.55
2022-07-30T23:28:09.854Z,17.57
2022-07-30T23:30:14.226Z,17.58
2022-07-30T23:32:17.863Z,17.61
2022-07-30T23:34:21.611Z,17.62
2022-07-30T23:36:25.613Z,17.63
2022-07-30T23:38:30.119Z,17.63
2022-07-30T23:40:33.858Z,17.64
2022-07-30T23:42:38.281Z,17.62
2022-07-30T23:44:44.092Z,17.62
2022-07-30T23:46:48.022Z,17.61
2022-07-30T23:48:51.691Z,17.61
2022-07-30T23:50:55.782Z,17.59
2022-07-30T23:52:59.512Z,17.57
2022-07-30T23:55:03.242Z,17.56
2022-07-30T23:57:06.955Z,17.53
2022-07-30T23:59:11.718Z,17.52
